EJA268 KCMH-KBKL
Flight info
| Callsign | EJA268 |
|---|---|
| Flight time | 0h 33m |
| Altitude | 11000 |
| Route | GEDDY ROLLN ROLLN2 |
| Aircraft | CL60/M-SBDE1E2E3FGHIJ1J4J5J7M3RWXYZ/LB1V1D1 |
Departure
| Time | 2026-05-09 01:22 |
|---|---|
| Airport | John Glenn Columbus International Airport (KCMH) |
Arrival
| Time | 2026-05-09 01:55 |
|---|---|
| Airport | Burke Lakefront Airport (KBKL) |
| Time | Latitude | Longitude | Altitude | Speed | Heading |
|---|---|---|---|---|---|
| 2026-05-09 00:54 | 40.00609 | -82.89980 | 817 ft | 0 kts | 92° |
| 2026-05-09 01:12 | 40.00607 | -82.89975 | 816 ft | 3 kts | 132° |
| 2026-05-09 01:12 | 40.00573 | -82.89932 | 816 ft | 9 kts | 97° |
| 2026-05-09 01:13 | 40.00536 | -82.89844 | 816 ft | 13 kts | 141° |
| 2026-05-09 01:13 | 40.00462 | -82.89764 | 816 ft | 13 kts | 140° |
| 2026-05-09 01:13 | 40.00386 | -82.89738 | 816 ft | 10 kts | 144° |
| 2026-05-09 01:13 | 40.00356 | -82.89706 | 815 ft | 0 kts | 189° |
| 2026-05-09 01:14 | 40.00348 | -82.89708 | 815 ft | 3 kts | 189° |
| 2026-05-09 01:15 | 40.00271 | -82.89728 | 815 ft | 16 kts | 209° |
| 2026-05-09 01:15 | 40.00169 | -82.89742 | 815 ft | 14 kts | 118° |
| 2026-05-09 01:15 | 40.00159 | -82.89597 | 815 ft | 17 kts | 95° |
| 2026-05-09 01:15 | 40.00149 | -82.89436 | 815 ft | 15 kts | 92° |
| 2026-05-09 01:16 | 40.00142 | -82.89300 | 815 ft | 16 kts | 96° |
| 2026-05-09 01:16 | 40.00133 | -82.89137 | 815 ft | 19 kts | 95° |
| 2026-05-09 01:16 | 40.00126 | -82.89010 | 815 ft | 14 kts | 95° |
| 2026-05-09 01:17 | 40.00107 | -82.88687 | 814 ft | 21 kts | 94° |
| 2026-05-09 01:17 | 40.00102 | -82.88575 | 814 ft | 13 kts | 93° |
| 2026-05-09 01:17 | 40.00092 | -82.88434 | 812 ft | 17 kts | 94° |
| 2026-05-09 01:17 | 40.00085 | -82.88316 | 812 ft | 8 kts | 94° |
| 2026-05-09 01:18 | 40.00081 | -82.88217 | 811 ft | 13 kts | 93° |
| 2026-05-09 01:18 | 40.00074 | -82.88100 | 809 ft | 6 kts | 94° |
| 2026-05-09 01:18 | 40.00073 | -82.88084 | 809 ft | 0 kts | 94° |
| 2026-05-09 01:19 | 40.00073 | -82.88080 | 809 ft | 2 kts | 94° |
| 2026-05-09 01:19 | 40.00071 | -82.88049 | 809 ft | 0 kts | 94° |
| 2026-05-09 01:20 | 40.00069 | -82.88014 | 809 ft | 8 kts | 94° |
| 2026-05-09 01:20 | 40.00096 | -82.87937 | 808 ft | 13 kts | 12° |
| 2026-05-09 01:20 | 40.00162 | -82.87959 | 807 ft | 11 kts | 283° |
| 2026-05-09 01:20 | 40.00164 | -82.87977 | 807 ft | 0 kts | 272° |
| 2026-05-09 01:22 | 40.00182 | -82.88297 | 811 ft | 92 kts | 274° |
| 2026-05-09 01:22 | 40.00247 | -82.89534 | 1007 ft | 168 kts | 274° |
| 2026-05-09 01:22 | 40.00354 | -82.91158 | 1797 ft | 195 kts | 273° |
| 2026-05-09 01:22 | 40.00454 | -82.92948 | 2368 ft | 202 kts | 272° |
| 2026-05-09 01:23 | 40.00569 | -82.94737 | 2950 ft | 197 kts | 272° |
| 2026-05-09 01:23 | 40.00704 | -82.96491 | 3530 ft | 195 kts | 272° |
| 2026-05-09 01:23 | 40.00889 | -82.98369 | 4092 ft | 230 kts | 279° |
| 2026-05-09 01:23 | 40.01703 | -83.00317 | 4387 ft | 262 kts | 309° |
| 2026-05-09 01:24 | 40.03295 | -83.01516 | 4640 ft | 274 kts | 341° |
| 2026-05-09 01:24 | 40.05219 | -83.01508 | 4888 ft | 286 kts | 8° |
| 2026-05-09 01:24 | 40.07175 | -83.00783 | 5000 ft | 290 kts | 13° |
| 2026-05-09 01:24 | 40.09095 | -83.00036 | 5000 ft | 289 kts | 13° |
| 2026-05-09 01:25 | 40.11019 | -82.99288 | 5000 ft | 288 kts | 13° |
| 2026-05-09 01:25 | 40.12947 | -82.98531 | 4998 ft | 287 kts | 13° |
| 2026-05-09 01:25 | 40.14845 | -82.97768 | 4993 ft | 287 kts | 14° |
| 2026-05-09 01:25 | 40.16607 | -82.96539 | 5109 ft | 288 kts | 39° |
| 2026-05-09 01:26 | 40.17870 | -82.94538 | 5901 ft | 290 kts | 59° |
| 2026-05-09 01:26 | 40.18738 | -82.92135 | 6780 ft | 301 kts | 68° |
| 2026-05-09 01:26 | 40.19562 | -82.89571 | 7652 ft | 308 kts | 67° |
| 2026-05-09 01:26 | 40.20386 | -82.87023 | 8516 ft | 311 kts | 66° |
| 2026-05-09 01:27 | 40.21235 | -82.84398 | 9399 ft | 315 kts | 66° |
| 2026-05-09 01:27 | 40.22090 | -82.81752 | 10279 ft | 319 kts | 65° |
| 2026-05-09 01:27 | 40.22943 | -82.79114 | 11164 ft | 323 kts | 65° |
| 2026-05-09 01:27 | 40.23818 | -82.76405 | 12046 ft | 327 kts | 64° |
| 2026-05-09 01:28 | 40.24714 | -82.73630 | 12671 ft | 336 kts | 65° |
| 2026-05-09 01:28 | 40.25626 | -82.70797 | 12939 ft | 337 kts | 64° |
| 2026-05-09 01:28 | 40.26526 | -82.68005 | 12978 ft | 337 kts | 64° |
| 2026-05-09 01:28 | 40.27432 | -82.65185 | 12983 ft | 336 kts | 64° |
| 2026-05-09 01:29 | 40.28346 | -82.62341 | 12974 ft | 335 kts | 64° |
| 2026-05-09 01:29 | 40.29249 | -82.59532 | 12965 ft | 344 kts | 64° |
| 2026-05-09 01:29 | 40.30220 | -82.56522 | 12959 ft | 377 kts | 64° |
| 2026-05-09 01:29 | 40.31267 | -82.53266 | 12948 ft | 393 kts | 65° |
| 2026-05-09 01:30 | 40.32320 | -82.49976 | 12964 ft | 393 kts | 65° |
| 2026-05-09 01:30 | 40.33374 | -82.46677 | 12966 ft | 394 kts | 65° |
| 2026-05-09 01:30 | 40.34425 | -82.43385 | 12973 ft | 393 kts | 65° |
| 2026-05-09 01:30 | 40.35484 | -82.40067 | 12971 ft | 393 kts | 65° |
| 2026-05-09 01:31 | 40.36529 | -82.36785 | 12979 ft | 393 kts | 65° |
| 2026-05-09 01:31 | 40.37580 | -82.33485 | 12976 ft | 393 kts | 65° |
| 2026-05-09 01:31 | 40.38635 | -82.30167 | 12971 ft | 393 kts | 66° |
| 2026-05-09 01:31 | 40.39673 | -82.26897 | 12973 ft | 393 kts | 66° |
| 2026-05-09 01:32 | 40.40724 | -82.23585 | 12977 ft | 393 kts | 66° |
| 2026-05-09 01:32 | 40.41773 | -82.20274 | 12982 ft | 393 kts | 66° |
| 2026-05-09 01:32 | 40.42826 | -82.16947 | 12987 ft | 394 kts | 65° |
| 2026-05-09 01:32 | 40.43865 | -82.13661 | 12982 ft | 393 kts | 66° |
| 2026-05-09 01:33 | 40.44904 | -82.10373 | 12972 ft | 392 kts | 66° |
| 2026-05-09 01:33 | 40.45952 | -82.07045 | 12974 ft | 392 kts | 66° |
| 2026-05-09 01:33 | 40.46995 | -82.03735 | 12972 ft | 393 kts | 66° |
| 2026-05-09 01:33 | 40.48037 | -82.00423 | 12973 ft | 392 kts | 66° |
| 2026-05-09 01:34 | 40.49074 | -81.97128 | 12976 ft | 392 kts | 66° |
| 2026-05-09 01:34 | 40.50099 | -81.93861 | 12975 ft | 392 kts | 65° |
| 2026-05-09 01:34 | 40.51148 | -81.90518 | 12973 ft | 392 kts | 66° |
| 2026-05-09 01:34 | 40.52286 | -81.87306 | 12972 ft | 390 kts | 57° |
| 2026-05-09 01:35 | 40.53981 | -81.84566 | 12975 ft | 385 kts | 39° |
| 2026-05-09 01:35 | 40.56142 | -81.82603 | 12976 ft | 378 kts | 22° |
| 2026-05-09 01:35 | 40.58608 | -81.81499 | 12974 ft | 370 kts | 6° |
| 2026-05-09 01:35 | 40.61118 | -81.80900 | 12974 ft | 369 kts | 5° |
| 2026-05-09 01:36 | 40.63672 | -81.80304 | 12977 ft | 369 kts | 5° |
| 2026-05-09 01:36 | 40.66184 | -81.79714 | 12980 ft | 369 kts | 5° |
| 2026-05-09 01:36 | 40.68726 | -81.79117 | 12984 ft | 368 kts | 5° |
| 2026-05-09 01:36 | 40.71234 | -81.78528 | 12986 ft | 368 kts | 5° |
| 2026-05-09 01:37 | 40.73763 | -81.77933 | 12989 ft | 368 kts | 5° |
| 2026-05-09 01:37 | 40.76284 | -81.77340 | 12992 ft | 368 kts | 5° |
| 2026-05-09 01:37 | 40.78781 | -81.76752 | 12992 ft | 368 kts | 5° |
| 2026-05-09 01:37 | 40.81296 | -81.76159 | 12989 ft | 368 kts | 5° |
| 2026-05-09 01:38 | 40.83816 | -81.75562 | 12995 ft | 356 kts | 4° |
| 2026-05-09 01:38 | 40.86196 | -81.74998 | 12997 ft | 349 kts | 5° |
| 2026-05-09 01:38 | 40.88582 | -81.74505 | 12994 ft | 343 kts | 359° |
| 2026-05-09 01:38 | 40.90963 | -81.74377 | 12990 ft | 341 kts | 355° |
| 2026-05-09 01:39 | 40.93345 | -81.74291 | 12851 ft | 344 kts | 356° |
| 2026-05-09 01:39 | 40.95738 | -81.74198 | 12573 ft | 341 kts | 356° |
| 2026-05-09 01:39 | 40.98089 | -81.74105 | 12215 ft | 341 kts | 356° |
| 2026-05-09 01:39 | 41.00454 | -81.74010 | 11763 ft | 337 kts | 356° |
| 2026-05-09 01:40 | 41.02783 | -81.73917 | 11326 ft | 333 kts | 356° |
| 2026-05-09 01:40 | 41.05047 | -81.73645 | 10900 ft | 331 kts | 7° |
| 2026-05-09 01:40 | 41.07216 | -81.72547 | 10447 ft | 331 kts | 21° |
| 2026-05-09 01:40 | 41.09244 | -81.71204 | 10007 ft | 325 kts | 21° |
| 2026-05-09 01:41 | 41.11245 | -81.69887 | 9529 ft | 313 kts | 21° |
| 2026-05-09 01:41 | 41.13152 | -81.68632 | 9214 ft | 305 kts | 21° |
| 2026-05-09 01:41 | 41.15044 | -81.67394 | 8987 ft | 294 kts | 21° |
| 2026-05-09 01:41 | 41.16897 | -81.66192 | 8974 ft | 299 kts | 21° |
| 2026-05-09 01:42 | 41.18765 | -81.64980 | 8980 ft | 299 kts | 20° |
| 2026-05-09 01:42 | 41.20633 | -81.63771 | 8972 ft | 299 kts | 20° |
| 2026-05-09 01:42 | 41.22488 | -81.62576 | 8975 ft | 299 kts | 20° |
| 2026-05-09 01:42 | 41.24379 | -81.61392 | 8977 ft | 298 kts | 20° |
| 2026-05-09 01:43 | 41.26263 | -81.60188 | 8681 ft | 301 kts | 20° |
| 2026-05-09 01:43 | 41.28132 | -81.58994 | 8293 ft | 296 kts | 20° |
| 2026-05-09 01:43 | 41.29958 | -81.57842 | 7936 ft | 291 kts | 20° |
| 2026-05-09 01:43 | 41.31761 | -81.56703 | 7538 ft | 288 kts | 21° |
| 2026-05-09 01:44 | 41.33481 | -81.55318 | 7111 ft | 289 kts | 31° |
| 2026-05-09 01:44 | 41.35096 | -81.53793 | 6633 ft | 282 kts | 31° |
| 2026-05-09 01:44 | 41.36663 | -81.52303 | 6213 ft | 274 kts | 31° |
| 2026-05-09 01:44 | 41.38199 | -81.50857 | 5795 ft | 266 kts | 31° |
| 2026-05-09 01:45 | 41.39687 | -81.49463 | 5380 ft | 260 kts | 31° |
| 2026-05-09 01:45 | 41.41120 | -81.48116 | 4993 ft | 245 kts | 31° |
| 2026-05-09 01:45 | 41.42467 | -81.46858 | 4595 ft | 231 kts | 31° |
| 2026-05-09 01:45 | 41.43765 | -81.45643 | 4191 ft | 226 kts | 32° |
| 2026-05-09 01:46 | 41.45042 | -81.44458 | 3808 ft | 225 kts | 31° |
| 2026-05-09 01:46 | 41.46339 | -81.43263 | 3376 ft | 224 kts | 31° |
| 2026-05-09 01:46 | 41.47607 | -81.42107 | 3044 ft | 217 kts | 31° |
| 2026-05-09 01:46 | 41.48865 | -81.40971 | 2981 ft | 220 kts | 31° |
| 2026-05-09 01:47 | 41.50126 | -81.39839 | 2989 ft | 220 kts | 31° |
| 2026-05-09 01:47 | 41.51384 | -81.38708 | 2997 ft | 211 kts | 31° |
| 2026-05-09 01:47 | 41.52569 | -81.37637 | 3009 ft | 203 kts | 31° |
| 2026-05-09 01:47 | 41.53737 | -81.36641 | 2993 ft | 198 kts | 21° |
| 2026-05-09 01:48 | 41.55049 | -81.36489 | 2983 ft | 187 kts | 338° |
| 2026-05-09 01:48 | 41.56086 | -81.37422 | 2999 ft | 180 kts | 313° |
| 2026-05-09 01:48 | 41.56995 | -81.38596 | 3002 ft | 181 kts | 311° |
| 2026-05-09 01:48 | 41.57890 | -81.39769 | 2998 ft | 180 kts | 311° |
| 2026-05-09 01:49 | 41.58783 | -81.40933 | 2997 ft | 180 kts | 311° |
| 2026-05-09 01:49 | 41.59688 | -81.42117 | 2998 ft | 181 kts | 311° |
| 2026-05-09 01:49 | 41.60578 | -81.43285 | 2993 ft | 181 kts | 311° |
| 2026-05-09 01:49 | 41.61479 | -81.44472 | 2991 ft | 181 kts | 311° |
| 2026-05-09 01:50 | 41.62270 | -81.45740 | 2985 ft | 177 kts | 290° |
| 2026-05-09 01:50 | 41.62225 | -81.47279 | 2982 ft | 164 kts | 239° |
| 2026-05-09 01:50 | 41.61459 | -81.48344 | 3006 ft | 158 kts | 225° |
| 2026-05-09 01:50 | 41.60724 | -81.49435 | 3003 ft | 156 kts | 234° |
| 2026-05-09 01:51 | 41.60104 | -81.50613 | 2993 ft | 153 kts | 238° |
| 2026-05-09 01:51 | 41.59546 | -81.51809 | 2989 ft | 150 kts | 240° |
| 2026-05-09 01:51 | 41.59007 | -81.53001 | 2979 ft | 152 kts | 239° |
| 2026-05-09 01:51 | 41.58444 | -81.54230 | 2822 ft | 154 kts | 239° |
| 2026-05-09 01:52 | 41.57888 | -81.55422 | 2655 ft | 146 kts | 238° |
| 2026-05-09 01:52 | 41.57378 | -81.56507 | 2480 ft | 133 kts | 238° |
| 2026-05-09 01:52 | 41.56898 | -81.57528 | 2289 ft | 126 kts | 238° |
| 2026-05-09 01:52 | 41.56437 | -81.58505 | 2103 ft | 123 kts | 238° |
| 2026-05-09 01:53 | 41.55985 | -81.59457 | 1926 ft | 122 kts | 237° |
| 2026-05-09 01:53 | 41.55524 | -81.60418 | 1770 ft | 121 kts | 237° |
| 2026-05-09 01:53 | 41.55064 | -81.61364 | 1644 ft | 122 kts | 236° |
| 2026-05-09 01:53 | 41.54606 | -81.62288 | 1468 ft | 119 kts | 238° |
| 2026-05-09 01:54 | 41.54196 | -81.63222 | 1303 ft | 115 kts | 238° |
| 2026-05-09 01:54 | 41.53780 | -81.64134 | 1154 ft | 115 kts | 236° |
| 2026-05-09 01:54 | 41.53347 | -81.65042 | 991 ft | 115 kts | 235° |
| 2026-05-09 01:54 | 41.52932 | -81.65966 | 832 ft | 115 kts | 235° |
| 2026-05-09 01:55 | 41.52508 | -81.66866 | 700 ft | 116 kts | 234° |
| 2026-05-09 01:55 | 41.52080 | -81.67790 | 582 ft | 112 kts | 235° |
| 2026-05-09 01:55 | 41.51770 | -81.68451 | 581 ft | 32 kts | 234° |
| 2026-05-09 01:55 | 41.51651 | -81.68649 | 582 ft | 22 kts | 220° |
| 2026-05-09 01:56 | 41.51550 | -81.68720 | 582 ft | 8 kts | 207° |
| 2026-05-09 01:56 | 41.51488 | -81.68761 | 582 ft | 11 kts | 206° |
| 2026-05-09 01:56 | 41.51412 | -81.68767 | 583 ft | 9 kts | 156° |
| 2026-05-09 01:56 | 41.51345 | -81.68800 | 583 ft | 12 kts | 220° |
| 2026-05-09 01:57 | 41.51269 | -81.68840 | 584 ft | 9 kts | 160° |
| 2026-05-09 01:57 | 41.51239 | -81.68798 | 585 ft | 4 kts | 61° |
| 2026-05-09 01:57 | 41.51241 | -81.68794 | 585 ft | 0 kts | 59° |